sensor_id;sensor_type;location;lat;lon;timestamp;P1;durP1;ratioP1;P2;durP2;ratioP2
16442;SDS011;8331;51.654;14.376;2023-02-15T00:00:05;45.27;;;23.93;;
16442;SDS011;8331;51.654;14.376;2023-02-15T00:02:32;44.97;;;23.53;;
16442;SDS011;8331;51.654;14.376;2023-02-15T00:04:58;50.80;;;24.90;;
16442;SDS011;8331;51.654;14.376;2023-02-15T00:07:25;47.80;;;25.87;;
16442;SDS011;8331;51.654;14.376;2023-02-15T00:09:51;45.47;;;24.27;;
16442;SDS011;8331;51.654;14.376;2023-02-15T00:12:18;44.63;;;24.50;;
16442;SDS011;8331;51.654;14.376;2023-02-15T00:14:46;42.77;;;23.47;;
16442;SDS011;8331;51.654;14.376;2023-02-15T00:17:13;46.57;;;24.97;;
16442;SDS011;8331;51.654;14.376;2023-02-15T00:19:40;47.07;;;23.23;;
16442;SDS011;8331;51.654;14.376;2023-02-15T00:22:07;44.83;;;24.13;;
16442;SDS011;8331;51.654;14.376;2023-02-15T00:24:33;45.33;;;24.70;;
16442;SDS011;8331;51.654;14.376;2023-02-15T00:27:00;46.67;;;26.57;;
16442;SDS011;8331;51.654;14.376;2023-02-15T00:29:26;40.80;;;22.63;;
16442;SDS011;8331;51.654;14.376;2023-02-15T00:31:53;43.67;;;24.07;;
16442;SDS011;8331;51.654;14.376;2023-02-15T00:34:23;44.53;;;23.67;;
16442;SDS011;8331;51.654;14.376;2023-02-15T00:36:50;44.87;;;24.07;;
16442;SDS011;8331;51.654;14.376;2023-02-15T00:39:17;45.03;;;23.40;;
16442;SDS011;8331;51.654;14.376;2023-02-15T00:41:44;42.80;;;24.00;;
16442;SDS011;8331;51.654;14.376;2023-02-15T00:44:10;43.43;;;23.43;;
16442;SDS011;8331;51.654;14.376;2023-02-15T00:46:37;46.53;;;24.33;;
16442;SDS011;8331;51.654;14.376;2023-02-15T00:49:04;46.17;;;24.40;;
16442;SDS011;8331;51.654;14.376;2023-02-15T00:51:31;44.77;;;24.53;;
16442;SDS011;8331;51.654;14.376;2023-02-15T00:53:58;43.87;;;24.40;;
16442;SDS011;8331;51.654;14.376;2023-02-15T00:56:24;42.90;;;23.30;;
16442;SDS011;8331;51.654;14.376;2023-02-15T00:58:51;44.87;;;23.67;;
16442;SDS011;8331;51.654;14.376;2023-02-15T01:01:18;41.17;;;23.50;;
16442;SDS011;8331;51.654;14.376;2023-02-15T01:03:45;50.10;;;23.97;;
16442;SDS011;8331;51.654;14.376;2023-02-15T01:06:13;48.73;;;24.13;;
16442;SDS011;8331;51.654;14.376;2023-02-15T01:08:41;44.67;;;24.07;;
16442;SDS011;8331;51.654;14.376;2023-02-15T01:11:09;41.90;;;24.40;;
16442;SDS011;8331;51.654;14.376;2023-02-15T01:13:36;44.90;;;24.13;;
16442;SDS011;8331;51.654;14.376;2023-02-15T01:16:04;47.70;;;24.60;;
16442;SDS011;8331;51.654;14.376;2023-02-15T01:18:31;46.93;;;25.33;;
16442;SDS011;8331;51.654;14.376;2023-02-15T01:20:58;45.67;;;23.57;;
16442;SDS011;8331;51.654;14.376;2023-02-15T01:23:25;42.57;;;23.47;;
16442;SDS011;8331;51.654;14.376;2023-02-15T01:25:51;43.47;;;23.50;;
16442;SDS011;8331;51.654;14.376;2023-02-15T01:28:18;42.57;;;23.53;;
16442;SDS011;8331;51.654;14.376;2023-02-15T01:30:44;43.17;;;23.97;;
16442;SDS011;8331;51.654;14.376;2023-02-15T01:33:11;42.87;;;22.73;;
16442;SDS011;8331;51.654;14.376;2023-02-15T01:35:45;46.63;;;23.17;;
16442;SDS011;8331;51.654;14.376;2023-02-15T01:38:15;44.17;;;23.53;;
16442;SDS011;8331;51.654;14.376;2023-02-15T01:40:41;38.70;;;21.90;;
16442;SDS011;8331;51.654;14.376;2023-02-15T01:43:11;43.07;;;22.93;;
16442;SDS011;8331;51.654;14.376;2023-02-15T01:45:38;41.47;;;22.50;;
16442;SDS011;8331;51.654;14.376;2023-02-15T01:48:15;38.13;;;21.30;;
16442;SDS011;8331;51.654;14.376;2023-02-15T01:50:44;40.17;;;21.93;;
16442;SDS011;8331;51.654;14.376;2023-02-15T01:53:14;42.87;;;23.13;;
16442;SDS011;8331;51.654;14.376;2023-02-15T01:55:44;37.03;;;22.13;;
16442;SDS011;8331;51.654;14.376;2023-02-15T01:58:13;42.00;;;22.70;;
16442;SDS011;8331;51.654;14.376;2023-02-15T02:00:40;43.20;;;22.33;;
16442;SDS011;8331;51.654;14.376;2023-02-15T02:03:07;43.97;;;23.47;;
16442;SDS011;8331;51.654;14.376;2023-02-15T02:05:34;39.57;;;22.00;;
16442;SDS011;8331;51.654;14.376;2023-02-15T02:08:01;46.70;;;23.30;;
16442;SDS011;8331;51.654;14.376;2023-02-15T02:10:30;44.77;;;23.77;;
16442;SDS011;8331;51.654;14.376;2023-02-15T02:12:58;41.60;;;22.90;;
16442;SDS011;8331;51.654;14.376;2023-02-15T02:15:31;38.33;;;23.43;;
16442;SDS011;8331;51.654;14.376;2023-02-15T02:18:03;39.87;;;23.27;;
16442;SDS011;8331;51.654;14.376;2023-02-15T02:23:18;42.50;;;23.00;;
16442;SDS011;8331;51.654;14.376;2023-02-15T02:25:52;40.47;;;22.83;;
16442;SDS011;8331;51.654;14.376;2023-02-15T02:36:08;41.07;;;22.17;;
16442;SDS011;8331;51.654;14.376;2023-02-15T02:38:57;45.30;;;22.43;;
16442;SDS011;8331;51.654;14.376;2023-02-15T02:44:19;39.10;;;21.33;;
16442;SDS011;8331;51.654;14.376;2023-02-15T02:49:31;42.13;;;23.37;;
16442;SDS011;8331;51.654;14.376;2023-02-15T02:51:58;40.17;;;22.00;;
16442;SDS011;8331;51.654;14.376;2023-02-15T02:54:25;42.10;;;23.47;;
16442;SDS011;8331;51.654;14.376;2023-02-15T02:56:52;39.83;;;21.83;;
16442;SDS011;8331;51.654;14.376;2023-02-15T02:59:21;41.70;;;23.17;;
16442;SDS011;8331;51.654;14.376;2023-02-15T03:01:55;39.53;;;23.00;;
16442;SDS011;8331;51.654;14.376;2023-02-15T03:04:25;40.37;;;22.87;;
16442;SDS011;8331;51.654;14.376;2023-02-15T03:07:12;38.93;;;22.83;;
16442;SDS011;8331;51.654;14.376;2023-02-15T03:09:47;36.33;;;21.10;;
16442;SDS011;8331;51.654;14.376;2023-02-15T03:12:24;35.17;;;19.77;;
16442;SDS011;8331;51.654;14.376;2023-02-15T03:14:56;35.53;;;20.60;;
16442;SDS011;8331;51.654;14.376;2023-02-15T03:17:23;36.47;;;21.17;;
16442;SDS011;8331;51.654;14.376;2023-02-15T03:19:51;36.93;;;21.00;;
16442;SDS011;8331;51.654;14.376;2023-02-15T03:22:25;36.37;;;21.07;;
16442;SDS011;8331;51.654;14.376;2023-02-15T03:27:20;38.73;;;21.97;;
16442;SDS011;8331;51.654;14.376;2023-02-15T03:29:49;40.77;;;22.80;;
16442;SDS011;8331;51.654;14.376;2023-02-15T03:32:18;40.13;;;22.03;;
16442;SDS011;8331;51.654;14.376;2023-02-15T03:34:45;37.83;;;22.10;;
16442;SDS011;8331;51.654;14.376;2023-02-15T03:37:55;34.33;;;20.87;;
16442;SDS011;8331;51.654;14.376;2023-02-15T03:40:10;37.77;;;21.23;;
16442;SDS011;8331;51.654;14.376;2023-02-15T03:43:05;39.37;;;21.27;;
16442;SDS011;8331;51.654;14.376;2023-02-15T03:45:37;42.23;;;22.37;;
16442;SDS011;8331;51.654;14.376;2023-02-15T03:48:04;36.83;;;21.33;;
16442;SDS011;8331;51.654;14.376;2023-02-15T03:50:32;45.73;;;23.87;;
16442;SDS011;8331;51.654;14.376;2023-02-15T03:53:18;38.70;;;22.33;;
16442;SDS011;8331;51.654;14.376;2023-02-15T03:55:52;36.60;;;21.17;;
16442;SDS011;8331;51.654;14.376;2023-02-15T03:58:19;39.00;;;20.60;;
16442;SDS011;8331;51.654;14.376;2023-02-15T04:01:09;36.77;;;20.90;;
16442;SDS011;8331;51.654;14.376;2023-02-15T04:04:07;36.77;;;20.83;;
16442;SDS011;8331;51.654;14.376;2023-02-15T04:06:36;38.60;;;20.97;;
16442;SDS011;8331;51.654;14.376;2023-02-15T04:09:03;39.20;;;21.70;;
16442;SDS011;8331;51.654;14.376;2023-02-15T04:11:48;36.00;;;21.63;;
16442;SDS011;8331;51.654;14.376;2023-02-15T04:14:14;37.20;;;20.93;;
16442;SDS011;8331;51.654;14.376;2023-02-15T04:16:59;40.17;;;22.13;;
16442;SDS011;8331;51.654;14.376;2023-02-15T04:19:26;39.50;;;20.63;;
16442;SDS011;8331;51.654;14.376;2023-02-15T04:22:11;39.63;;;22.90;;
16442;SDS011;8331;51.654;14.376;2023-02-15T04:24:56;40.70;;;22.87;;
16442;SDS011;8331;51.654;14.376;2023-02-15T04:27:42;41.10;;;22.10;;
16442;SDS011;8331;51.654;14.376;2023-02-15T04:30:09;40.93;;;23.03;;
16442;SDS011;8331;51.654;14.376;2023-02-15T04:32:36;45.30;;;24.23;;
16442;SDS011;8331;51.654;14.376;2023-02-15T04:35:03;44.17;;;23.17;;
16442;SDS011;8331;51.654;14.376;2023-02-15T04:37:30;47.70;;;25.07;;
16442;SDS011;8331;51.654;14.376;2023-02-15T04:39:56;57.07;;;31.47;;
16442;SDS011;8331;51.654;14.376;2023-02-15T04:42:25;49.20;;;27.77;;
16442;SDS011;8331;51.654;14.376;2023-02-15T04:44:52;53.30;;;28.83;;
16442;SDS011;8331;51.654;14.376;2023-02-15T04:47:19;58.80;;;30.90;;
16442;SDS011;8331;51.654;14.376;2023-02-15T04:49:45;58.37;;;34.33;;
16442;SDS011;8331;51.654;14.376;2023-02-15T04:52:12;61.27;;;35.03;;
16442;SDS011;8331;51.654;14.376;2023-02-15T04:54:39;55.33;;;31.40;;
16442;SDS011;8331;51.654;14.376;2023-02-15T04:57:05;56.30;;;33.50;;
16442;SDS011;8331;51.654;14.376;2023-02-15T04:59:32;45.33;;;28.30;;
16442;SDS011;8331;51.654;14.376;2023-02-15T05:01:59;45.27;;;26.43;;
16442;SDS011;8331;51.654;14.376;2023-02-15T05:04:25;46.60;;;26.07;;
16442;SDS011;8331;51.654;14.376;2023-02-15T05:06:52;44.63;;;26.83;;
16442;SDS011;8331;51.654;14.376;2023-02-15T05:09:18;45.17;;;25.73;;
16442;SDS011;8331;51.654;14.376;2023-02-15T05:11:45;49.20;;;26.53;;
16442;SDS011;8331;51.654;14.376;2023-02-15T05:14:12;47.17;;;25.90;;
16442;SDS011;8331;51.654;14.376;2023-02-15T05:16:38;44.83;;;24.77;;
16442;SDS011;8331;51.654;14.376;2023-02-15T05:19:05;38.27;;;22.40;;
16442;SDS011;8331;51.654;14.376;2023-02-15T05:21:32;42.47;;;22.90;;
16442;SDS011;8331;51.654;14.376;2023-02-15T05:23:59;43.70;;;23.77;;
16442;SDS011;8331;51.654;14.376;2023-02-15T05:26:25;43.27;;;23.63;;
16442;SDS011;8331;51.654;14.376;2023-02-15T05:29:10;43.10;;;23.30;;
16442;SDS011;8331;51.654;14.376;2023-02-15T05:31:37;43.43;;;22.63;;
16442;SDS011;8331;51.654;14.376;2023-02-15T05:34:04;38.63;;;22.10;;
16442;SDS011;8331;51.654;14.376;2023-02-15T05:36:31;39.17;;;23.03;;
16442;SDS011;8331;51.654;14.376;2023-02-15T05:38:57;41.33;;;22.40;;
16442;SDS011;8331;51.654;14.376;2023-02-15T05:41:24;43.03;;;22.87;;
16442;SDS011;8331;51.654;14.376;2023-02-15T05:43:51;43.43;;;24.27;;
16442;SDS011;8331;51.654;14.376;2023-02-15T05:46:21;43.43;;;23.87;;
16442;SDS011;8331;51.654;14.376;2023-02-15T05:48:47;44.00;;;23.27;;
16442;SDS011;8331;51.654;14.376;2023-02-15T05:51:14;41.77;;;23.30;;
16442;SDS011;8331;51.654;14.376;2023-02-15T05:53:42;45.33;;;23.00;;
16442;SDS011;8331;51.654;14.376;2023-02-15T05:56:09;42.33;;;22.13;;
16442;SDS011;8331;51.654;14.376;2023-02-15T05:58:37;44.53;;;28.58;;
16442;SDS011;8331;51.654;14.376;2023-02-15T06:01:14;44.23;;;25.80;;
16442;SDS011;8331;51.654;14.376;2023-02-15T06:03:41;43.10;;;23.47;;
16442;SDS011;8331;51.654;14.376;2023-02-15T06:06:08;37.50;;;22.37;;
16442;SDS011;8331;51.654;14.376;2023-02-15T06:08:35;41.07;;;22.67;;
16442;SDS011;8331;51.654;14.376;2023-02-15T06:11:03;41.23;;;22.60;;
16442;SDS011;8331;51.654;14.376;2023-02-15T06:13:29;40.53;;;21.63;;
16442;SDS011;8331;51.654;14.376;2023-02-15T06:15:56;40.07;;;22.87;;
16442;SDS011;8331;51.654;14.376;2023-02-15T06:18:23;40.40;;;22.27;;
16442;SDS011;8331;51.654;14.376;2023-02-15T06:20:50;45.10;;;24.67;;
16442;SDS011;8331;51.654;14.376;2023-02-15T06:23:16;44.47;;;24.20;;
16442;SDS011;8331;51.654;14.376;2023-02-15T06:25:44;43.43;;;23.97;;
16442;SDS011;8331;51.654;14.376;2023-02-15T06:28:11;46.87;;;25.17;;
16442;SDS011;8331;51.654;14.376;2023-02-15T06:30:37;42.67;;;23.93;;
16442;SDS011;8331;51.654;14.376;2023-02-15T06:33:04;48.10;;;25.67;;
16442;SDS011;8331;51.654;14.376;2023-02-15T06:35:30;46.30;;;24.10;;
16442;SDS011;8331;51.654;14.376;2023-02-15T06:37:57;44.80;;;24.70;;
16442;SDS011;8331;51.654;14.376;2023-02-15T06:40:23;47.23;;;25.93;;
16442;SDS011;8331;51.654;14.376;2023-02-15T06:42:50;43.63;;;24.23;;
16442;SDS011;8331;51.654;14.376;2023-02-15T06:45:17;45.17;;;25.20;;
16442;SDS011;8331;51.654;14.376;2023-02-15T06:47:43;46.47;;;25.40;;
16442;SDS011;8331;51.654;14.376;2023-02-15T06:50:10;53.57;;;28.53;;
16442;SDS011;8331;51.654;14.376;2023-02-15T06:52:36;51.13;;;28.63;;
16442;SDS011;8331;51.654;14.376;2023-02-15T06:55:03;57.70;;;33.23;;
16442;SDS011;8331;51.654;14.376;2023-02-15T06:57:30;55.50;;;32.20;;
16442;SDS011;8331;51.654;14.376;2023-02-15T06:59:56;54.93;;;30.43;;
16442;SDS011;8331;51.654;14.376;2023-02-15T07:02:24;51.80;;;29.53;;
16442;SDS011;8331;51.654;14.376;2023-02-15T07:04:51;53.07;;;28.20;;
16442;SDS011;8331;51.654;14.376;2023-02-15T07:07:17;53.03;;;31.13;;
16442;SDS011;8331;51.654;14.376;2023-02-15T07:09:44;54.13;;;31.47;;
16442;SDS011;8331;51.654;14.376;2023-02-15T07:12:10;54.43;;;31.43;;
16442;SDS011;8331;51.654;14.376;2023-02-15T07:14:56;56.77;;;33.30;;
16442;SDS011;8331;51.654;14.376;2023-02-15T07:17:24;49.10;;;27.57;;
16442;SDS011;8331;51.654;14.376;2023-02-15T07:20:09;48.63;;;25.50;;
16442;SDS011;8331;51.654;14.376;2023-02-15T07:22:36;45.93;;;26.53;;
16442;SDS011;8331;51.654;14.376;2023-02-15T07:25:04;52.13;;;29.00;;
16442;SDS011;8331;51.654;14.376;2023-02-15T07:27:30;49.67;;;28.73;;
16442;SDS011;8331;51.654;14.376;2023-02-15T07:29:57;62.80;;;32.27;;
16442;SDS011;8331;51.654;14.376;2023-02-15T07:32:26;57.90;;;30.20;;
16442;SDS011;8331;51.654;14.376;2023-02-15T07:34:53;52.90;;;28.90;;
16442;SDS011;8331;51.654;14.376;2023-02-15T07:37:19;54.07;;;29.57;;
16442;SDS011;8331;51.654;14.376;2023-02-15T07:39:46;57.83;;;30.73;;
16442;SDS011;8331;51.654;14.376;2023-02-15T07:42:12;60.03;;;31.43;;
16442;SDS011;8331;51.654;14.376;2023-02-15T07:44:39;54.40;;;29.87;;
16442;SDS011;8331;51.654;14.376;2023-02-15T07:47:06;50.80;;;29.77;;
16442;SDS011;8331;51.654;14.376;2023-02-15T07:49:32;55.60;;;29.67;;
16442;SDS011;8331;51.654;14.376;2023-02-15T07:52:00;51.43;;;27.47;;
16442;SDS011;8331;51.654;14.376;2023-02-15T07:54:26;52.90;;;27.23;;
16442;SDS011;8331;51.654;14.376;2023-02-15T07:56:53;56.57;;;28.23;;
16442;SDS011;8331;51.654;14.376;2023-02-15T07:59:19;55.93;;;30.33;;
16442;SDS011;8331;51.654;14.376;2023-02-15T08:01:46;98.03;;;51.57;;
16442;SDS011;8331;51.654;14.376;2023-02-15T08:04:12;91.17;;;44.50;;
16442;SDS011;8331;51.654;14.376;2023-02-15T08:06:39;76.90;;;41.03;;
16442;SDS011;8331;51.654;14.376;2023-02-15T08:09:06;69.03;;;37.50;;
16442;SDS011;8331;51.654;14.376;2023-02-15T08:11:34;77.20;;;38.50;;
16442;SDS011;8331;51.654;14.376;2023-02-15T08:21:36;62.80;;;30.70;;
16442;SDS011;8331;51.654;14.376;2023-02-15T08:24:03;59.43;;;29.73;;
16442;SDS011;8331;51.654;14.376;2023-02-15T08:26:30;58.30;;;30.30;;
16442;SDS011;8331;51.654;14.376;2023-02-15T08:28:57;57.83;;;30.17;;
16442;SDS011;8331;51.654;14.376;2023-02-15T08:31:24;63.03;;;32.77;;
16442;SDS011;8331;51.654;14.376;2023-02-15T08:33:52;64.77;;;33.30;;
16442;SDS011;8331;51.654;14.376;2023-02-15T08:36:20;70.57;;;38.60;;
16442;SDS011;8331;51.654;14.376;2023-02-15T08:38:47;69.90;;;36.47;;
16442;SDS011;8331;51.654;14.376;2023-02-15T08:41:20;62.17;;;32.63;;
16442;SDS011;8331;51.654;14.376;2023-02-15T08:43:48;70.40;;;33.60;;
16442;SDS011;8331;51.654;14.376;2023-02-15T08:46:15;88.97;;;41.07;;
16442;SDS011;8331;51.654;14.376;2023-02-15T08:48:43;73.80;;;35.80;;
16442;SDS011;8331;51.654;14.376;2023-02-15T08:51:11;65.97;;;33.50;;
16442;SDS011;8331;51.654;14.376;2023-02-15T08:53:39;132.17;;;52.87;;
16442;SDS011;8331;51.654;14.376;2023-02-15T08:56:06;162.17;;;64.03;;
16442;SDS011;8331;51.654;14.376;2023-02-15T08:58:33;70.00;;;35.23;;
16442;SDS011;8331;51.654;14.376;2023-02-15T09:01:00;72.83;;;37.70;;
16442;SDS011;8331;51.654;14.376;2023-02-15T09:03:29;72.30;;;37.93;;
16442;SDS011;8331;51.654;14.376;2023-02-15T09:05:59;65.40;;;33.50;;
16442;SDS011;8331;51.654;14.376;2023-02-15T09:08:26;69.33;;;34.57;;
16442;SDS011;8331;51.654;14.376;2023-02-15T09:10:53;63.87;;;33.33;;
16442;SDS011;8331;51.654;14.376;2023-02-15T09:13:20;66.83;;;33.77;;
16442;SDS011;8331;51.654;14.376;2023-02-15T09:15:47;62.70;;;31.43;;
16442;SDS011;8331;51.654;14.376;2023-02-15T09:18:13;64.43;;;32.83;;
16442;SDS011;8331;51.654;14.376;2023-02-15T09:20:43;61.73;;;31.60;;
16442;SDS011;8331;51.654;14.376;2023-02-15T09:23:10;64.53;;;32.47;;
16442;SDS011;8331;51.654;14.376;2023-02-15T09:25:51;64.63;;;32.60;;
16442;SDS011;8331;51.654;14.376;2023-02-15T09:28:18;63.80;;;33.13;;
16442;SDS011;8331;51.654;14.376;2023-02-15T09:30:45;64.50;;;32.37;;
16442;SDS011;8331;51.654;14.376;2023-02-15T09:33:11;68.33;;;33.37;;
16442;SDS011;8331;51.654;14.376;2023-02-15T09:35:38;61.57;;;32.33;;
16442;SDS011;8331;51.654;14.376;2023-02-15T09:38:04;63.63;;;34.20;;
16442;SDS011;8331;51.654;14.376;2023-02-15T09:40:32;63.43;;;32.67;;
16442;SDS011;8331;51.654;14.376;2023-02-15T09:43:06;61.23;;;32.57;;
16442;SDS011;8331;51.654;14.376;2023-02-15T10:11:45;44.43;;;27.50;;
16442;SDS011;8331;51.654;14.376;2023-02-15T10:24:49;39.77;;;25.53;;
16442;SDS011;8331;51.654;14.376;2023-02-15T10:27:20;39.57;;;25.17;;
16442;SDS011;8331;51.654;14.376;2023-02-15T10:37:46;38.87;;;24.30;;
16442;SDS011;8331;51.654;14.376;2023-02-15T10:40:32;40.03;;;25.13;;
16442;SDS011;8331;51.654;14.376;2023-02-15T10:45:31;39.70;;;25.37;;
16442;SDS011;8331;51.654;14.376;2023-02-15T10:48:09;37.03;;;23.90;;
16442;SDS011;8331;51.654;14.376;2023-02-15T10:53:53;36.10;;;22.87;;
16442;SDS011;8331;51.654;14.376;2023-02-15T10:56:24;35.87;;;23.10;;
16442;SDS011;8331;51.654;14.376;2023-02-15T11:06:44;33.30;;;23.10;;
16442;SDS011;8331;51.654;14.376;2023-02-15T11:09:14;36.23;;;23.30;;
16442;SDS011;8331;51.654;14.376;2023-02-15T11:11:45;36.47;;;23.83;;
16442;SDS011;8331;51.654;14.376;2023-02-15T11:16:51;31.50;;;22.27;;
16442;SDS011;8331;51.654;14.376;2023-02-15T11:19:22;33.93;;;21.83;;
16442;SDS011;8331;51.654;14.376;2023-02-15T11:21:51;31.90;;;21.13;;
16442;SDS011;8331;51.654;14.376;2023-02-15T11:24:19;33.47;;;22.13;;
16442;SDS011;8331;51.654;14.376;2023-02-15T11:26:57;33.87;;;22.83;;
16442;SDS011;8331;51.654;14.376;2023-02-15T11:29:32;31.37;;;22.00;;
16442;SDS011;8331;51.654;14.376;2023-02-15T11:32:01;28.77;;;21.63;;
16442;SDS011;8331;51.654;14.376;2023-02-15T11:34:36;30.77;;;21.83;;
16442;SDS011;8331;51.654;14.376;2023-02-15T11:37:24;30.03;;;21.00;;
16442;SDS011;8331;51.654;14.376;2023-02-15T11:39:52;32.10;;;22.03;;
16442;SDS011;8331;51.654;14.376;2023-02-15T11:42:21;28.53;;;20.80;;
16442;SDS011;8331;51.654;14.376;2023-02-15T11:47:22;30.87;;;20.70;;
16442;SDS011;8331;51.654;14.376;2023-02-15T11:49:49;29.40;;;20.97;;
16442;SDS011;8331;51.654;14.376;2023-02-15T11:52:16;28.50;;;19.77;;
16442;SDS011;8331;51.654;14.376;2023-02-15T11:54:51;29.00;;;20.03;;
16442;SDS011;8331;51.654;14.376;2023-02-15T11:57:21;29.40;;;19.87;;
16442;SDS011;8331;51.654;14.376;2023-02-15T12:02:53;24.80;;;18.73;;
16442;SDS011;8331;51.654;14.376;2023-02-15T12:05:21;28.17;;;20.17;;
16442;SDS011;8331;51.654;14.376;2023-02-15T12:07:54;28.27;;;19.43;;
16442;SDS011;8331;51.654;14.376;2023-02-15T12:12:48;29.40;;;20.30;;
16442;SDS011;8331;51.654;14.376;2023-02-15T12:15:36;28.57;;;20.40;;
16442;SDS011;8331;51.654;14.376;2023-02-15T12:18:02;26.10;;;18.37;;
16442;SDS011;8331;51.654;14.376;2023-02-15T12:20:30;25.13;;;18.80;;
16442;SDS011;8331;51.654;14.376;2023-02-15T12:23:03;25.87;;;19.30;;
16442;SDS011;8331;51.654;14.376;2023-02-15T12:27:57;27.93;;;19.70;;
16442;SDS011;8331;51.654;14.376;2023-02-15T12:30:45;27.40;;;18.70;;
16442;SDS011;8331;51.654;14.376;2023-02-15T12:35:54;25.70;;;18.43;;
16442;SDS011;8331;51.654;14.376;2023-02-15T12:38:26;25.13;;;18.07;;
16442;SDS011;8331;51.654;14.376;2023-02-15T12:41:03;22.93;;;17.73;;
16442;SDS011;8331;51.654;14.376;2023-02-15T12:43:39;24.03;;;18.40;;
16442;SDS011;8331;51.654;14.376;2023-02-15T12:46:27;27.57;;;18.97;;
16442;SDS011;8331;51.654;14.376;2023-02-15T12:56:50;22.13;;;17.37;;
16442;SDS011;8331;51.654;14.376;2023-02-15T12:59:18;24.83;;;17.50;;
16442;SDS011;8331;51.654;14.376;2023-02-15T13:01:48;23.47;;;17.40;;
16442;SDS011;8331;51.654;14.376;2023-02-15T13:04:20;21.17;;;16.17;;
16442;SDS011;8331;51.654;14.376;2023-02-15T13:06:48;22.10;;;15.90;;
16442;SDS011;8331;51.654;14.376;2023-02-15T13:09:17;23.20;;;16.33;;
16442;SDS011;8331;51.654;14.376;2023-02-15T13:11:45;21.27;;;16.00;;
16442;SDS011;8331;51.654;14.376;2023-02-15T13:16:41;24.57;;;16.87;;
16442;SDS011;8331;51.654;14.376;2023-02-15T13:19:10;25.03;;;16.67;;
16442;SDS011;8331;51.654;14.376;2023-02-15T13:21:39;22.13;;;16.47;;
16442;SDS011;8331;51.654;14.376;2023-02-15T13:24:11;24.38;;;20.33;;
16442;SDS011;8331;51.654;14.376;2023-02-15T13:26:40;23.23;;;18.30;;
16442;SDS011;8331;51.654;14.376;2023-02-15T13:29:30;21.27;;;16.27;;
16442;SDS011;8331;51.654;14.376;2023-02-15T13:32:01;25.73;;;17.17;;
16442;SDS011;8331;51.654;14.376;2023-02-15T13:34:32;24.10;;;16.93;;
16442;SDS011;8331;51.654;14.376;2023-02-15T13:44:47;24.53;;;17.87;;
16442;SDS011;8331;51.654;14.376;2023-02-15T13:50:04;26.33;;;17.37;;
16442;SDS011;8331;51.654;14.376;2023-02-15T13:52:33;23.33;;;18.03;;
16442;SDS011;8331;51.654;14.376;2023-02-15T14:32:01;21.23;;;16.10;;
16442;SDS011;8331;51.654;14.376;2023-02-15T14:37:02;22.37;;;17.13;;
16442;SDS011;8331;51.654;14.376;2023-02-15T14:42:24;20.63;;;16.27;;
16442;SDS011;8331;51.654;14.376;2023-02-15T14:44:57;22.37;;;16.80;;
16442;SDS011;8331;51.654;14.376;2023-02-15T14:47:31;22.77;;;16.33;;
16442;SDS011;8331;51.654;14.376;2023-02-15T14:50:00;21.73;;;16.73;;
16442;SDS011;8331;51.654;14.376;2023-02-15T14:55:35;21.10;;;16.50;;
16442;SDS011;8331;51.654;14.376;2023-02-15T14:58:09;21.37;;;15.80;;
16442;SDS011;8331;51.654;14.376;2023-02-15T15:00:37;24.10;;;16.53;;
16442;SDS011;8331;51.654;14.376;2023-02-15T15:03:12;24.07;;;16.83;;
16442;SDS011;8331;51.654;14.376;2023-02-15T15:05:49;22.27;;;16.33;;
16442;SDS011;8331;51.654;14.376;2023-02-15T15:08:36;21.80;;;16.47;;
16442;SDS011;8331;51.654;14.376;2023-02-15T15:14:08;19.17;;;15.30;;
16442;SDS011;8331;51.654;14.376;2023-02-15T15:19:07;22.33;;;16.63;;
16442;SDS011;8331;51.654;14.376;2023-02-15T15:21:54;21.60;;;15.53;;
16442;SDS011;8331;51.654;14.376;2023-02-15T15:32:43;19.57;;;15.70;;
16442;SDS011;8331;51.654;14.376;2023-02-15T15:40:33;23.33;;;16.00;;
16442;SDS011;8331;51.654;14.376;2023-02-15T15:50:34;22.90;;;16.70;;
16442;SDS011;8331;51.654;14.376;2023-02-15T15:53:01;22.93;;;16.87;;
16442;SDS011;8331;51.654;14.376;2023-02-15T15:55:29;22.50;;;16.97;;
16442;SDS011;8331;51.654;14.376;2023-02-15T15:57:57;24.50;;;17.80;;
16442;SDS011;8331;51.654;14.376;2023-02-15T16:02:58;25.33;;;17.03;;
16442;SDS011;8331;51.654;14.376;2023-02-15T16:05:24;32.50;;;20.37;;
16442;SDS011;8331;51.654;14.376;2023-02-15T16:07:51;29.10;;;19.67;;
16442;SDS011;8331;51.654;14.376;2023-02-15T16:10:22;25.90;;;17.50;;
16442;SDS011;8331;51.654;14.376;2023-02-15T16:12:49;26.70;;;18.83;;
16442;SDS011;8331;51.654;14.376;2023-02-15T16:15:23;29.73;;;19.40;;
16442;SDS011;8331;51.654;14.376;2023-02-15T16:17:51;23.40;;;16.80;;
16442;SDS011;8331;51.654;14.376;2023-02-15T16:20:22;25.27;;;17.60;;
16442;SDS011;8331;51.654;14.376;2023-02-15T16:22:54;22.90;;;16.40;;
16442;SDS011;8331;51.654;14.376;2023-02-15T16:28:05;25.77;;;17.13;;
16442;SDS011;8331;51.654;14.376;2023-02-15T16:30:35;23.77;;;16.93;;
16442;SDS011;8331;51.654;14.376;2023-02-15T16:33:07;23.93;;;16.97;;
16442;SDS011;8331;51.654;14.376;2023-02-15T16:35:34;29.73;;;21.33;;
16442;SDS011;8331;51.654;14.376;2023-02-15T16:38:02;26.97;;;18.43;;
16442;SDS011;8331;51.654;14.376;2023-02-15T16:40:32;28.67;;;18.63;;
16442;SDS011;8331;51.654;14.376;2023-02-15T16:43:01;27.20;;;17.73;;
16442;SDS011;8331;51.654;14.376;2023-02-15T16:45:28;25.47;;;16.73;;
16442;SDS011;8331;51.654;14.376;2023-02-15T16:47:56;25.00;;;17.13;;
16442;SDS011;8331;51.654;14.376;2023-02-15T16:50:24;26.90;;;17.97;;
16442;SDS011;8331;51.654;14.376;2023-02-15T16:52:52;26.40;;;17.83;;
16442;SDS011;8331;51.654;14.376;2023-02-15T16:55:20;28.63;;;18.23;;
16442;SDS011;8331;51.654;14.376;2023-02-15T16:57:48;33.00;;;20.70;;
16442;SDS011;8331;51.654;14.376;2023-02-15T17:00:19;31.87;;;19.63;;
16442;SDS011;8331;51.654;14.376;2023-02-15T17:03:21;29.93;;;18.87;;
16442;SDS011;8331;51.654;14.376;2023-02-15T17:10:33;28.73;;;18.23;;
16442;SDS011;8331;51.654;14.376;2023-02-15T17:13:03;29.93;;;19.07;;
16442;SDS011;8331;51.654;14.376;2023-02-15T17:15:34;32.47;;;20.33;;
16442;SDS011;8331;51.654;14.376;2023-02-15T17:20:44;27.60;;;17.87;;
16442;SDS011;8331;51.654;14.376;2023-02-15T17:23:45;29.73;;;19.13;;
16442;SDS011;8331;51.654;14.376;2023-02-15T17:28:49;33.73;;;20.70;;
16442;SDS011;8331;51.654;14.376;2023-02-15T17:31:17;30.17;;;20.57;;
16442;SDS011;8331;51.654;14.376;2023-02-15T17:33:44;33.43;;;20.47;;
16442;SDS011;8331;51.654;14.376;2023-02-15T17:36:11;32.67;;;20.60;;
16442;SDS011;8331;51.654;14.376;2023-02-15T17:38:40;34.07;;;20.10;;
16442;SDS011;8331;51.654;14.376;2023-02-15T17:41:07;34.33;;;21.20;;
16442;SDS011;8331;51.654;14.376;2023-02-15T17:43:35;32.17;;;19.53;;
16442;SDS011;8331;51.654;14.376;2023-02-15T17:46:01;37.73;;;21.37;;
16442;SDS011;8331;51.654;14.376;2023-02-15T17:48:30;35.67;;;21.73;;
16442;SDS011;8331;51.654;14.376;2023-02-15T17:50:58;33.57;;;19.30;;
16442;SDS011;8331;51.654;14.376;2023-02-15T17:53:24;35.10;;;21.20;;
16442;SDS011;8331;51.654;14.376;2023-02-15T17:55:51;35.10;;;20.50;;
16442;SDS011;8331;51.654;14.376;2023-02-15T17:58:18;34.40;;;20.43;;
16442;SDS011;8331;51.654;14.376;2023-02-15T18:00:54;32.30;;;19.80;;
16442;SDS011;8331;51.654;14.376;2023-02-15T18:06:26;35.53;;;20.63;;